Overview Statistics Trail Chart Weather Telemetry Raw packets
 

This is the latest recevied weather packets stored in our database for station/object IT9IJI-15. If no packets are shown the sender has not sent any weather packets the latest 10 day(s).

<< 5 6 7 8 9 10 >>
Time Temp. Humidity Pressure Rain* Wind** Luminosity Snow
1787904830 42.78° C 22% 899.1 hPa - - - -
1787903930 42.78° C 20% 899.1 hPa - - - -
1787903030 42.78° C 19% 899 hPa - - - -
1787902129 42.22° C 19% 898.8 hPa - - - -
1787901238 42.22° C 19% 898.7 hPa - - - -
1787900329 41.67° C 18% 898.7 hPa - - - -
1787899492 41.11° C 18% 898.7 hPa - - - -
1787898655 41.11° C 19% 898.6 hPa - - - -
1787898099 40.56° C 20% 898.6 hPa - - - -
1787897818 40.56° C 20% 898.6 hPa - - - -
1787897542 40° C 20% 898.6 hPa - - - -
1787897261 39.44° C 22% 898.6 hPa - - - -
1787896981 37.78° C 24% 898.5 hPa - - - -
1787896867 37.22° C 24% 898.6 hPa - - - -
1787896717 36.67° C 25% 898.6 hPa - - - -
1787896522 35° C 27% 898.5 hPa - - - -
1787896408 34.44° C 28% 898.6 hPa - - - -
1787846675 42.22° C 22% 898.6 hPa - - - -
1787845775 42.78° C 23% 898.6 hPa - - - -
1787843075 36.11° C 26% 891.6 hPa - - - -
1787841270 42.78° C 26% 898.5 hPa - - - -
1787839472 42.78° C 26% 898.5 hPa - - - -
1787837669 42.78° C 26% 898.4 hPa - - - -
1787835869 42.78° C 26% 898.4 hPa - - - -
1787834969 42.78° C 26% 898.4 hPa - - - -

* Rain since midnight (hover to see other rain measurements)
** Current wind speed in m/s (hover to see current wind gust speed)